sensor_id;sensor_type;location;lat;lon;timestamp;pressure;altitude;pressure_sealevel;temperature;humidity
73842;BME280;62184;52.006;5.924;2023-08-08T00:02:03;100676.19;;;20.65;57.27
73842;BME280;62184;52.006;5.924;2023-08-08T00:04:30;100661.06;;;20.61;57.48
73842;BME280;62184;52.006;5.924;2023-08-08T00:06:59;100667.59;;;20.58;57.71
73842;BME280;62184;52.006;5.924;2023-08-08T00:09:25;100672.03;;;20.59;57.53
73842;BME280;62184;52.006;5.924;2023-08-08T00:11:52;100661.94;;;20.62;57.59
73842;BME280;62184;52.006;5.924;2023-08-08T00:14:18;100658.78;;;20.68;57.85
73842;BME280;62184;52.006;5.924;2023-08-08T00:16:45;100656.94;;;20.68;58.26
73842;BME280;62184;52.006;5.924;2023-08-08T00:19:11;100655.00;;;20.70;57.65
73842;BME280;62184;52.006;5.924;2023-08-08T00:21:37;100654.81;;;20.73;57.78
73842;BME280;62184;52.006;5.924;2023-08-08T00:24:07;100654.56;;;20.76;57.61
73842;BME280;62184;52.006;5.924;2023-08-08T00:26:33;100647.09;;;20.80;57.76
73842;BME280;62184;52.006;5.924;2023-08-08T00:29:00;100652.41;;;20.81;58.14
73842;BME280;62184;52.006;5.924;2023-08-08T00:31:26;100654.91;;;20.84;57.56
73842;BME280;62184;52.006;5.924;2023-08-08T00:33:53;100648.50;;;20.85;57.64
73842;BME280;62184;52.006;5.924;2023-08-08T00:36:19;100647.41;;;20.88;57.71
73842;BME280;62184;52.006;5.924;2023-08-08T00:38:46;100642.00;;;20.88;57.61
73842;BME280;62184;52.006;5.924;2023-08-08T00:41:15;100645.47;;;20.90;57.62
73842;BME280;62184;52.006;5.924;2023-08-08T00:43:41;100642.66;;;20.91;57.41
73842;BME280;62184;52.006;5.924;2023-08-08T00:46:08;100647.94;;;20.93;57.47
73842;BME280;62184;52.006;5.924;2023-08-08T00:48:34;100644.16;;;20.95;57.42
73842;BME280;62184;52.006;5.924;2023-08-08T00:51:01;100633.22;;;20.97;57.28
73842;BME280;62184;52.006;5.924;2023-08-08T00:53:30;100642.03;;;21.01;57.03
73842;BME280;62184;52.006;5.924;2023-08-08T00:55:56;100627.44;;;21.02;57.08
73842;BME280;62184;52.006;5.924;2023-08-08T00:58:27;100633.75;;;21.02;57.00
73842;BME280;62184;52.006;5.924;2023-08-08T01:00:54;100630.06;;;21.03;56.87
73842;BME280;62184;52.006;5.924;2023-08-08T01:03:21;100631.78;;;21.04;56.94
73842;BME280;62184;52.006;5.924;2023-08-08T01:05:49;100628.97;;;21.06;56.76
73842;BME280;62184;52.006;5.924;2023-08-08T01:08:27;100633.88;;;21.01;56.90
73842;BME280;62184;52.006;5.924;2023-08-08T01:10:59;100639.41;;;20.99;56.92
73842;BME280;62184;52.006;5.924;2023-08-08T01:13:31;100644.75;;;21.01;57.19
73842;BME280;62184;52.006;5.924;2023-08-08T01:16:00;100635.84;;;20.99;57.17
73842;BME280;62184;52.006;5.924;2023-08-08T01:18:29;100630.91;;;20.91;57.14
73842;BME280;62184;52.006;5.924;2023-08-08T01:20:57;100645.91;;;20.84;57.46
73842;BME280;62184;52.006;5.924;2023-08-08T01:23:29;100647.75;;;20.83;58.04
73842;BME280;62184;52.006;5.924;2023-08-08T01:26:02;100626.56;;;20.88;58.03
73842;BME280;62184;52.006;5.924;2023-08-08T01:28:30;100612.66;;;20.93;58.02
73842;BME280;62184;52.006;5.924;2023-08-08T01:30:56;100594.75;;;20.90;57.69
73842;BME280;62184;52.006;5.924;2023-08-08T01:33:23;100612.00;;;20.89;58.19
73842;BME280;62184;52.006;5.924;2023-08-08T01:35:53;100611.47;;;20.84;58.48
73842;BME280;62184;52.006;5.924;2023-08-08T01:38:29;100615.91;;;20.85;58.03
73842;BME280;62184;52.006;5.924;2023-08-08T01:41:01;100611.69;;;20.81;57.97
73842;BME280;62184;52.006;5.924;2023-08-08T01:43:32;100621.56;;;20.82;58.21
73842;BME280;62184;52.006;5.924;2023-08-08T01:46:00;100616.25;;;20.81;58.27
73842;BME280;62184;52.006;5.924;2023-08-08T01:48:28;100604.41;;;20.82;58.11
73842;BME280;62184;52.006;5.924;2023-08-08T01:50:55;100600.59;;;20.84;57.95
73842;BME280;62184;52.006;5.924;2023-08-08T01:53:22;100605.06;;;20.85;58.02
73842;BME280;62184;52.006;5.924;2023-08-08T01:55:48;100608.09;;;20.81;57.90
73842;BME280;62184;52.006;5.924;2023-08-08T01:58:18;100608.31;;;20.78;57.99
73842;BME280;62184;52.006;5.924;2023-08-08T02:00:45;100609.41;;;20.75;58.45
73842;BME280;62184;52.006;5.924;2023-08-08T02:03:11;100598.56;;;20.75;57.82
73842;BME280;62184;52.006;5.924;2023-08-08T02:05:38;100595.94;;;20.74;58.16
73842;BME280;62184;52.006;5.924;2023-08-08T02:08:05;100597.03;;;20.71;58.07
73842;BME280;62184;52.006;5.924;2023-08-08T02:10:31;100610.59;;;20.71;57.76
73842;BME280;62184;52.006;5.924;2023-08-08T02:12:58;100600.72;;;20.70;58.11
73842;BME280;62184;52.006;5.924;2023-08-08T02:15:27;100591.69;;;20.70;58.01
73842;BME280;62184;52.006;5.924;2023-08-08T02:17:54;100587.25;;;20.69;58.28
73842;BME280;62184;52.006;5.924;2023-08-08T02:20:20;100581.19;;;20.65;58.16
73842;BME280;62184;52.006;5.924;2023-08-08T02:22:47;100582.25;;;20.63;58.20
73842;BME280;62184;52.006;5.924;2023-08-08T02:25:13;100582.38;;;20.61;58.31
73842;BME280;62184;52.006;5.924;2023-08-08T02:27:40;100577.69;;;20.63;58.04
73842;BME280;62184;52.006;5.924;2023-08-08T02:30:07;100577.91;;;20.60;58.24
73842;BME280;62184;52.006;5.924;2023-08-08T02:32:37;100579.13;;;20.56;58.06
73842;BME280;62184;52.006;5.924;2023-08-08T02:35:04;100579.56;;;20.50;58.26
73842;BME280;62184;52.006;5.924;2023-08-08T02:37:31;100582.47;;;20.47;58.04
73842;BME280;62184;52.006;5.924;2023-08-08T02:39:58;100587.03;;;20.46;58.19
73842;BME280;62184;52.006;5.924;2023-08-08T02:42:24;100576.84;;;20.50;57.91
73842;BME280;62184;52.006;5.924;2023-08-08T02:44:51;100580.19;;;20.53;58.03
73842;BME280;62184;52.006;5.924;2023-08-08T02:47:17;100578.56;;;20.51;57.91
73842;BME280;62184;52.006;5.924;2023-08-08T02:49:46;100566.09;;;20.48;57.95
73842;BME280;62184;52.006;5.924;2023-08-08T02:52:13;100575.09;;;20.49;58.26
73842;BME280;62184;52.006;5.924;2023-08-08T02:54:39;100571.63;;;20.47;57.98
73842;BME280;62184;52.006;5.924;2023-08-08T02:57:06;100562.63;;;20.46;58.47
73842;BME280;62184;52.006;5.924;2023-08-08T02:59:33;100563.38;;;20.48;58.50
73842;BME280;62184;52.006;5.924;2023-08-08T03:02:00;100560.88;;;20.45;58.79
73842;BME280;62184;52.006;5.924;2023-08-08T03:04:26;100555.44;;;20.45;59.19
73842;BME280;62184;52.006;5.924;2023-08-08T03:06:55;100551.88;;;20.45;58.73
73842;BME280;62184;52.006;5.924;2023-08-08T03:09:22;100556.41;;;20.44;58.67
73842;BME280;62184;52.006;5.924;2023-08-08T03:11:48;100564.66;;;20.43;58.89
73842;BME280;62184;52.006;5.924;2023-08-08T03:14:15;100569.97;;;20.44;58.65
73842;BME280;62184;52.006;5.924;2023-08-08T03:16:41;100574.25;;;20.48;58.73
73842;BME280;62184;52.006;5.924;2023-08-08T03:19:08;100569.44;;;20.52;58.62
73842;BME280;62184;52.006;5.924;2023-08-08T03:21:34;100567.19;;;20.58;58.37
73842;BME280;62184;52.006;5.924;2023-08-08T03:24:04;100566.84;;;20.63;58.63
73842;BME280;62184;52.006;5.924;2023-08-08T03:26:31;100565.88;;;20.64;58.40
73842;BME280;62184;52.006;5.924;2023-08-08T03:28:57;100558.38;;;20.68;58.89
73842;BME280;62184;52.006;5.924;2023-08-08T03:31:24;100553.41;;;20.74;58.64
73842;BME280;62184;52.006;5.924;2023-08-08T03:33:50;100548.69;;;20.76;58.18
73842;BME280;62184;52.006;5.924;2023-08-08T03:36:17;100545.88;;;20.78;58.67
73842;BME280;62184;52.006;5.924;2023-08-08T03:38:43;100554.13;;;20.76;58.31
73842;BME280;62184;52.006;5.924;2023-08-08T03:41:13;100550.56;;;20.76;58.68
73842;BME280;62184;52.006;5.924;2023-08-08T03:43:40;100552.28;;;20.77;58.52
73842;BME280;62184;52.006;5.924;2023-08-08T03:46:06;100540.34;;;20.79;58.92
73842;BME280;62184;52.006;5.924;2023-08-08T03:48:33;100541.22;;;20.80;58.99
73842;BME280;62184;52.006;5.924;2023-08-08T03:50:59;100544.91;;;20.79;58.36
73842;BME280;62184;52.006;5.924;2023-08-08T03:53:26;100545.78;;;20.79;58.59
73842;BME280;62184;52.006;5.924;2023-08-08T03:55:52;100546.75;;;20.78;58.81
73842;BME280;62184;52.006;5.924;2023-08-08T03:58:21;100543.25;;;20.76;58.88
73842;BME280;62184;52.006;5.924;2023-08-08T04:00:48;100537.97;;;20.75;59.19
73842;BME280;62184;52.006;5.924;2023-08-08T04:03:15;100539.06;;;20.72;59.09
73842;BME280;62184;52.006;5.924;2023-08-08T04:05:44;100539.06;;;20.72;58.78
73842;BME280;62184;52.006;5.924;2023-08-08T04:08:11;100539.81;;;20.74;58.96
73842;BME280;62184;52.006;5.924;2023-08-08T04:10:37;100536.88;;;20.77;59.14
73842;BME280;62184;52.006;5.924;2023-08-08T04:13:04;100535.13;;;20.76;58.94
73842;BME280;62184;52.006;5.924;2023-08-08T04:15:33;100526.78;;;20.79;59.00
73842;BME280;62184;52.006;5.924;2023-08-08T04:17:59;100536.00;;;20.77;58.76
73842;BME280;62184;52.006;5.924;2023-08-08T04:20:26;100523.53;;;20.74;59.27
73842;BME280;62184;52.006;5.924;2023-08-08T04:22:52;100531.69;;;20.74;59.08
73842;BME280;62184;52.006;5.924;2023-08-08T04:25:19;100531.56;;;20.76;58.94
73842;BME280;62184;52.006;5.924;2023-08-08T04:27:45;100526.25;;;20.74;58.50
73842;BME280;62184;52.006;5.924;2023-08-08T04:30:12;100525.91;;;20.79;58.92
73842;BME280;62184;52.006;5.924;2023-08-08T04:32:41;100533.84;;;20.82;58.56
73842;BME280;62184;52.006;5.924;2023-08-08T04:35:08;100532.97;;;20.81;58.87
73842;BME280;62184;52.006;5.924;2023-08-08T04:37:34;100527.44;;;20.83;58.92
73842;BME280;62184;52.006;5.924;2023-08-08T04:40:01;100527.75;;;20.78;58.81
73842;BME280;62184;52.006;5.924;2023-08-08T04:42:27;100526.00;;;20.77;58.47
73842;BME280;62184;52.006;5.924;2023-08-08T04:44:54;100524.06;;;20.79;58.37
73842;BME280;62184;52.006;5.924;2023-08-08T04:47:20;100530.00;;;20.84;58.33
73842;BME280;62184;52.006;5.924;2023-08-08T04:49:49;100525.34;;;20.86;58.62
73842;BME280;62184;52.006;5.924;2023-08-08T04:52:16;100527.84;;;20.89;58.68
73842;BME280;62184;52.006;5.924;2023-08-08T04:54:43;100522.31;;;20.91;58.50
73842;BME280;62184;52.006;5.924;2023-08-08T04:57:09;100522.06;;;20.94;58.06
73842;BME280;62184;52.006;5.924;2023-08-08T04:59:36;100510.13;;;20.96;58.39
73842;BME280;62184;52.006;5.924;2023-08-08T05:02:02;100521.69;;;21.00;58.14
73842;BME280;62184;52.006;5.924;2023-08-08T05:04:30;100514.03;;;21.05;58.42
73842;BME280;62184;52.006;5.924;2023-08-08T05:06:59;100517.63;;;21.06;57.76
73842;BME280;62184;52.006;5.924;2023-08-08T05:09:25;100523.81;;;21.08;58.07
73842;BME280;62184;52.006;5.924;2023-08-08T05:11:52;100516.66;;;21.07;57.67
73842;BME280;62184;52.006;5.924;2023-08-08T05:14:19;100520.34;;;21.06;57.96
73842;BME280;62184;52.006;5.924;2023-08-08T05:16:45;100520.13;;;21.09;58.27
73842;BME280;62184;52.006;5.924;2023-08-08T05:19:12;100515.31;;;21.12;57.85
73842;BME280;62184;52.006;5.924;2023-08-08T05:21:39;100516.84;;;21.16;58.29
73842;BME280;62184;52.006;5.924;2023-08-08T05:24:08;100509.00;;;21.24;58.27
73842;BME280;62184;52.006;5.924;2023-08-08T05:26:34;100509.19;;;21.34;57.86
73842;BME280;62184;52.006;5.924;2023-08-08T05:29:01;100511.44;;;21.40;57.67
73842;BME280;62184;52.006;5.924;2023-08-08T05:31:27;100505.53;;;21.46;57.79
73842;BME280;62184;52.006;5.924;2023-08-08T05:33:54;100512.19;;;21.42;58.00
73842;BME280;62184;52.006;5.924;2023-08-08T05:36:20;100504.53;;;21.47;57.54
73842;BME280;62184;52.006;5.924;2023-08-08T05:38:47;100505.06;;;21.52;57.39
73842;BME280;62184;52.006;5.924;2023-08-08T05:41:16;100515.81;;;21.54;57.29
73842;BME280;62184;52.006;5.924;2023-08-08T05:43:42;100511.53;;;21.62;57.42
73842;BME280;62184;52.006;5.924;2023-08-08T05:46:09;100519.84;;;21.72;57.29
73842;BME280;62184;52.006;5.924;2023-08-08T05:48:35;100528.97;;;21.84;57.43
73842;BME280;62184;52.006;5.924;2023-08-08T05:51:02;100516.00;;;21.87;56.81
73842;BME280;62184;52.006;5.924;2023-08-08T05:53:29;100521.09;;;21.92;57.25
73842;BME280;62184;52.006;5.924;2023-08-08T05:55:55;100520.84;;;21.95;56.55
73842;BME280;62184;52.006;5.924;2023-08-08T05:58:24;100523.81;;;21.92;56.83
73842;BME280;62184;52.006;5.924;2023-08-08T06:00:52;100531.81;;;21.93;56.36
73842;BME280;62184;52.006;5.924;2023-08-08T06:03:18;100529.38;;;21.90;56.81
73842;BME280;62184;52.006;5.924;2023-08-08T06:05:45;100533.13;;;22.00;56.70
73842;BME280;62184;52.006;5.924;2023-08-08T06:08:11;100537.69;;;22.11;56.51
73842;BME280;62184;52.006;5.924;2023-08-08T06:10:38;100525.84;;;22.12;56.52
73842;BME280;62184;52.006;5.924;2023-08-08T06:13:04;100534.13;;;22.11;56.17
73842;BME280;62184;52.006;5.924;2023-08-08T06:15:34;100534.75;;;22.14;56.84
73842;BME280;62184;52.006;5.924;2023-08-08T06:18:00;100539.97;;;22.17;56.24
73842;BME280;62184;52.006;5.924;2023-08-08T06:20:27;100527.88;;;22.32;56.46
73842;BME280;62184;52.006;5.924;2023-08-08T06:22:53;100531.09;;;22.37;55.91
73842;BME280;62184;52.006;5.924;2023-08-08T06:25:20;100533.81;;;22.37;56.12
73842;BME280;62184;52.006;5.924;2023-08-08T06:27:46;100539.41;;;22.47;55.68
73842;BME280;62184;52.006;5.924;2023-08-08T06:30:13;100546.25;;;22.53;55.50
73842;BME280;62184;52.006;5.924;2023-08-08T06:32:42;100544.28;;;22.55;55.11
73842;BME280;62184;52.006;5.924;2023-08-08T06:35:09;100543.97;;;22.46;54.76
73842;BME280;62184;52.006;5.924;2023-08-08T06:37:36;100540.88;;;22.40;54.95
73842;BME280;62184;52.006;5.924;2023-08-08T06:40:03;100545.47;;;22.39;54.97
73842;BME280;62184;52.006;5.924;2023-08-08T06:42:31;100560.53;;;22.43;55.08
73842;BME280;62184;52.006;5.924;2023-08-08T06:44:57;100558.00;;;22.53;55.50
73842;BME280;62184;52.006;5.924;2023-08-08T06:47:24;100558.38;;;22.71;55.00
73842;BME280;62184;52.006;5.924;2023-08-08T06:49:53;100556.91;;;22.89;54.52
73842;BME280;62184;52.006;5.924;2023-08-08T06:52:20;100561.88;;;22.95;54.01
73842;BME280;62184;52.006;5.924;2023-08-08T06:54:47;100560.00;;;22.96;53.63
73842;BME280;62184;52.006;5.924;2023-08-08T06:57:13;100560.13;;;22.94;53.94
73842;BME280;62184;52.006;5.924;2023-08-08T06:59:40;100556.19;;;22.98;53.55
73842;BME280;62184;52.006;5.924;2023-08-08T07:02:06;100547.78;;;23.01;53.45
73842;BME280;62184;52.006;5.924;2023-08-08T07:04:33;100559.78;;;23.10;53.60
73842;BME280;62184;52.006;5.924;2023-08-08T07:07:02;100549.59;;;23.12;52.78
73842;BME280;62184;52.006;5.924;2023-08-08T07:09:29;100552.81;;;23.17;52.71
73842;BME280;62184;52.006;5.924;2023-08-08T07:11:55;100547.38;;;23.28;52.69
73842;BME280;62184;52.006;5.924;2023-08-08T07:14:22;100558.38;;;23.38;52.08
73842;BME280;62184;52.006;5.924;2023-08-08T07:16:48;100556.63;;;23.48;51.53
73842;BME280;62184;52.006;5.924;2023-08-08T07:19:15;100547.59;;;23.47;50.96
73842;BME280;62184;52.006;5.924;2023-08-08T07:21:41;100547.06;;;23.53;51.17
73842;BME280;62184;52.006;5.924;2023-08-08T07:24:10;100544.06;;;23.68;51.16
73842;BME280;62184;52.006;5.924;2023-08-08T07:26:37;100548.34;;;23.81;50.31
73842;BME280;62184;52.006;5.924;2023-08-08T07:29:03;100537.44;;;23.92;49.83
73842;BME280;62184;52.006;5.924;2023-08-08T07:31:30;100540.84;;;24.06;50.00
73842;BME280;62184;52.006;5.924;2023-08-08T07:33:56;100545.44;;;24.26;49.93
73842;BME280;62184;52.006;5.924;2023-08-08T07:36:22;100533.56;;;24.37;48.85
73842;BME280;62184;52.006;5.924;2023-08-08T07:38:49;100536.19;;;24.38;47.89
73842;BME280;62184;52.006;5.924;2023-08-08T07:41:18;100543.50;;;24.38;48.07
73842;BME280;62184;52.006;5.924;2023-08-08T07:43:45;100537.59;;;24.32;47.32
73842;BME280;62184;52.006;5.924;2023-08-08T07:46:11;100527.44;;;24.44;47.74
73842;BME280;62184;52.006;5.924;2023-08-08T07:48:38;100539.44;;;24.74;47.55
73842;BME280;62184;52.006;5.924;2023-08-08T07:51:05;100528.13;;;24.88;47.48
73842;BME280;62184;52.006;5.924;2023-08-08T07:53:31;100526.75;;;25.03;46.87
73842;BME280;62184;52.006;5.924;2023-08-08T07:55:58;100540.31;;;25.14;46.17
73842;BME280;62184;52.006;5.924;2023-08-08T07:58:27;100528.13;;;25.18;46.55
73842;BME280;62184;52.006;5.924;2023-08-08T08:00:53;100525.88;;;25.33;46.25
73842;BME280;62184;52.006;5.924;2023-08-08T08:03:20;100522.47;;;25.50;46.11
73842;BME280;62184;52.006;5.924;2023-08-08T08:05:47;100516.44;;;25.66;45.92
73842;BME280;62184;52.006;5.924;2023-08-08T08:08:13;100526.66;;;25.73;44.90
73842;BME280;62184;52.006;5.924;2023-08-08T08:10:39;100527.81;;;25.71;44.02
73842;BME280;62184;52.006;5.924;2023-08-08T08:13:06;100520.47;;;25.71;44.05
73842;BME280;62184;52.006;5.924;2023-08-08T08:15:35;100521.34;;;25.81;43.56
73842;BME280;62184;52.006;5.924;2023-08-08T08:18:02;100518.91;;;25.69;42.40
73842;BME280;62184;52.006;5.924;2023-08-08T08:20:28;100520.88;;;25.57;43.58
73842;BME280;62184;52.006;5.924;2023-08-08T08:22:55;100531.97;;;25.56;43.37
73842;BME280;62184;52.006;5.924;2023-08-08T08:25:22;100517.28;;;25.57;43.13
73842;BME280;62184;52.006;5.924;2023-08-08T08:27:48;100512.69;;;25.57;42.74
73842;BME280;62184;52.006;5.924;2023-08-08T08:30:14;100508.66;;;25.71;42.92
73842;BME280;62184;52.006;5.924;2023-08-08T08:32:44;100513.00;;;25.83;43.19
73842;BME280;62184;52.006;5.924;2023-08-08T08:35:10;100515.03;;;26.00;42.76
73842;BME280;62184;52.006;5.924;2023-08-08T08:37:37;100519.78;;;26.08;41.75
73842;BME280;62184;52.006;5.924;2023-08-08T08:40:04;100513.16;;;26.10;41.60
73842;BME280;62184;52.006;5.924;2023-08-08T08:42:32;100523.09;;;26.11;41.17
73842;BME280;62184;52.006;5.924;2023-08-08T08:45:01;100522.19;;;26.20;40.35
73842;BME280;62184;52.006;5.924;2023-08-08T08:47:30;100522.19;;;26.20;40.80
73842;BME280;62184;52.006;5.924;2023-08-08T08:50:01;100513.56;;;26.35;41.21
73842;BME280;62184;52.006;5.924;2023-08-08T08:52:28;100519.69;;;26.46;40.82
73842;BME280;62184;52.006;5.924;2023-08-08T08:54:55;100517.41;;;26.61;40.66
73842;BME280;62184;52.006;5.924;2023-08-08T08:57:22;100509.84;;;26.73;40.04
73842;BME280;62184;52.006;5.924;2023-08-08T08:59:49;100500.34;;;26.77;39.49
73842;BME280;62184;52.006;5.924;2023-08-08T09:02:16;100509.19;;;26.61;39.44
73842;BME280;62184;52.006;5.924;2023-08-08T09:04:44;100503.59;;;26.43;39.08
73842;BME280;62184;52.006;5.924;2023-08-08T09:07:14;100504.13;;;26.56;39.61
73842;BME280;62184;52.006;5.924;2023-08-08T09:09:44;100508.13;;;26.72;40.27
73842;BME280;62184;52.006;5.924;2023-08-08T09:12:11;100503.13;;;26.94;39.47
73842;BME280;62184;52.006;5.924;2023-08-08T09:14:39;100510.13;;;27.07;38.49
73842;BME280;62184;52.006;5.924;2023-08-08T09:17:10;100507.06;;;26.82;37.59
73842;BME280;62184;52.006;5.924;2023-08-08T09:19:37;100512.63;;;26.63;37.80
73842;BME280;62184;52.006;5.924;2023-08-08T09:22:04;100511.75;;;26.63;37.89
73842;BME280;62184;52.006;5.924;2023-08-08T09:24:37;100503.38;;;27.01;37.81
73842;BME280;62184;52.006;5.924;2023-08-08T09:27:06;100516.19;;;27.10;36.63
73842;BME280;62184;52.006;5.924;2023-08-08T09:29:33;100518.34;;;27.16;37.58
73842;BME280;62184;52.006;5.924;2023-08-08T09:32:02;100525.97;;;27.13;37.40
73842;BME280;62184;52.006;5.924;2023-08-08T09:34:29;100518.75;;;27.21;36.93
73842;BME280;62184;52.006;5.924;2023-08-08T09:36:56;100521.66;;;27.20;37.23
73842;BME280;62184;52.006;5.924;2023-08-08T09:39:22;100523.53;;;27.19;36.48
73842;BME280;62184;52.006;5.924;2023-08-08T09:41:52;100513.84;;;27.15;36.52
73842;BME280;62184;52.006;5.924;2023-08-08T09:44:22;100521.19;;;27.15;36.58
73842;BME280;62184;52.006;5.924;2023-08-08T09:46:50;100526.19;;;27.29;36.30
73842;BME280;62184;52.006;5.924;2023-08-08T09:49:16;100522.16;;;27.33;35.50
73842;BME280;62184;52.006;5.924;2023-08-08T09:51:43;100513.25;;;27.21;35.31
73842;BME280;62184;52.006;5.924;2023-08-08T09:54:12;100527.06;;;27.02;35.62
73842;BME280;62184;52.006;5.924;2023-08-08T09:56:40;100519.72;;;26.93;35.57
73842;BME280;62184;52.006;5.924;2023-08-08T09:59:09;100527.81;;;26.94;35.59
73842;BME280;62184;52.006;5.924;2023-08-08T10:01:36;100516.78;;;27.04;35.52
73842;BME280;62184;52.006;5.924;2023-08-08T10:04:06;100520.91;;;27.27;35.64
73842;BME280;62184;52.006;5.924;2023-08-08T10:06:33;100518.19;;;27.45;34.59
73842;BME280;62184;52.006;5.924;2023-08-08T10:09:00;100517.63;;;27.42;34.29
73842;BME280;62184;52.006;5.924;2023-08-08T10:11:30;100512.72;;;27.18;34.02
73842;BME280;62184;52.006;5.924;2023-08-08T10:13:57;100507.22;;;27.18;34.27
73842;BME280;62184;52.006;5.924;2023-08-08T10:16:31;100515.31;;;27.37;33.93
73842;BME280;62184;52.006;5.924;2023-08-08T10:19:00;100524.78;;;27.52;33.78
73842;BME280;62184;52.006;5.924;2023-08-08T10:21:32;100515.63;;;27.61;33.50
73842;BME280;62184;52.006;5.924;2023-08-08T10:24:04;100529.78;;;27.57;33.93
73842;BME280;62184;52.006;5.924;2023-08-08T10:26:33;100525.94;;;27.50;33.66
73842;BME280;62184;52.006;5.924;2023-08-08T10:29:01;100529.91;;;27.38;33.66
73842;BME280;62184;52.006;5.924;2023-08-08T10:31:33;100526.94;;;27.49;33.67
73842;BME280;62184;52.006;5.924;2023-08-08T10:34:01;100537.88;;;27.58;33.64
73842;BME280;62184;52.006;5.924;2023-08-08T10:36:43;100524.31;;;27.75;33.40
73842;BME280;62184;52.006;5.924;2023-08-08T10:39:15;100529.16;;;27.63;33.49
73842;BME280;62184;52.006;5.924;2023-08-08T10:41:45;100532.09;;;27.34;33.89
73842;BME280;62184;52.006;5.924;2023-08-08T10:44:13;100537.41;;;27.18;33.39
73842;BME280;62184;52.006;5.924;2023-08-08T10:46:43;100530.56;;;27.22;33.61
73842;BME280;62184;52.006;5.924;2023-08-08T10:49:11;100525.94;;;27.22;33.08
73842;BME280;62184;52.006;5.924;2023-08-08T10:51:39;100527.25;;;27.46;33.95
73842;BME280;62184;52.006;5.924;2023-08-08T10:54:12;100529.81;;;27.75;33.71
73842;BME280;62184;52.006;5.924;2023-08-08T10:56:40;100529.06;;;28.00;33.55
73842;BME280;62184;52.006;5.924;2023-08-08T10:59:14;100528.66;;;27.95;33.78
73842;BME280;62184;52.006;5.924;2023-08-08T11:01:48;100534.94;;;27.87;33.33
73842;BME280;62184;52.006;5.924;2023-08-08T11:04:18;100529.75;;;27.84;33.35
73842;BME280;62184;52.006;5.924;2023-08-08T11:06:46;100519.25;;;27.80;32.61
73842;BME280;62184;52.006;5.924;2023-08-08T11:09:14;100523.28;;;27.76;32.29
73842;BME280;62184;52.006;5.924;2023-08-08T11:11:42;100529.41;;;27.69;32.79
73842;BME280;62184;52.006;5.924;2023-08-08T11:14:11;100531.84;;;27.73;32.94
73842;BME280;62184;52.006;5.924;2023-08-08T11:16:39;100525.84;;;27.87;32.88
73842;BME280;62184;52.006;5.924;2023-08-08T11:19:08;100528.25;;;27.90;33.26
73842;BME280;62184;52.006;5.924;2023-08-08T11:21:36;100524.34;;;27.92;32.83
73842;BME280;62184;52.006;5.924;2023-08-08T11:24:06;100514.75;;;27.96;33.14
73842;BME280;62184;52.006;5.924;2023-08-08T11:26:34;100524.50;;;28.09;33.50
73842;BME280;62184;52.006;5.924;2023-08-08T11:29:02;100519.63;;;28.20;33.12
73842;BME280;62184;52.006;5.924;2023-08-08T11:31:30;100530.53;;;28.12;32.87
73842;BME280;62184;52.006;5.924;2023-08-08T11:33:58;100529.28;;;27.89;32.90
73842;BME280;62184;52.006;5.924;2023-08-08T11:36:29;100530.63;;;27.85;33.13
73842;BME280;62184;52.006;5.924;2023-08-08T11:38:57;100522.41;;;27.85;32.86
73842;BME280;62184;52.006;5.924;2023-08-08T11:41:26;100515.47;;;27.81;33.00
73842;BME280;62184;52.006;5.924;2023-08-08T11:43:53;100524.81;;;27.88;33.12
73842;BME280;62184;52.006;5.924;2023-08-08T11:46:22;100513.59;;;27.99;32.67
73842;BME280;62184;52.006;5.924;2023-08-08T11:48:49;100509.34;;;28.04;32.77
73842;BME280;62184;52.006;5.924;2023-08-08T11:51:16;100510.13;;;27.97;32.51
73842;BME280;62184;52.006;5.924;2023-08-08T11:53:52;100521.50;;;28.20;33.07
73842;BME280;62184;52.006;5.924;2023-08-08T11:56:20;100519.50;;;28.48;32.56
73842;BME280;62184;52.006;5.924;2023-08-08T11:58:49;100495.00;;;28.54;32.58
73842;BME280;62184;52.006;5.924;2023-08-08T12:01:16;100500.03;;;28.67;32.48
73842;BME280;62184;52.006;5.924;2023-08-08T12:03:45;100502.13;;;28.73;32.35
73842;BME280;62184;52.006;5.924;2023-08-08T12:06:12;100503.00;;;28.73;31.78
73842;BME280;62184;52.006;5.924;2023-08-08T12:08:41;100508.34;;;28.75;32.46
73842;BME280;62184;52.006;5.924;2023-08-08T12:11:11;100497.97;;;28.61;32.41
73842;BME280;62184;52.006;5.924;2023-08-08T12:13:40;100499.91;;;28.42;32.76
73842;BME280;62184;52.006;5.924;2023-08-08T12:16:09;100495.25;;;28.43;32.90
73842;BME280;62184;52.006;5.924;2023-08-08T12:18:37;100496.03;;;28.53;32.82
73842;BME280;62184;52.006;5.924;2023-08-08T12:21:05;100498.72;;;28.71;32.32
73842;BME280;62184;52.006;5.924;2023-08-08T12:23:33;100495.72;;;28.64;31.93
73842;BME280;62184;52.006;5.924;2023-08-08T12:26:02;100496.53;;;28.57;31.67
73842;BME280;62184;52.006;5.924;2023-08-08T12:28:32;100500.59;;;28.70;31.94
73842;BME280;62184;52.006;5.924;2023-08-08T12:30:59;100487.69;;;29.05;31.73
73842;BME280;62184;52.006;5.924;2023-08-08T12:33:26;100485.56;;;29.25;30.84
73842;BME280;62184;52.006;5.924;2023-08-08T12:35:52;100489.88;;;29.27;31.02
73842;BME280;62184;52.006;5.924;2023-08-08T12:38:19;100497.38;;;29.09;30.84
73842;BME280;62184;52.006;5.924;2023-08-08T12:40:45;100496.69;;;29.15;30.67
73842;BME280;62184;52.006;5.924;2023-08-08T12:43:12;100492.47;;;29.29;30.39
73842;BME280;62184;52.006;5.924;2023-08-08T12:45:41;100479.59;;;29.45;31.03
73842;BME280;62184;52.006;5.924;2023-08-08T12:48:08;100494.72;;;29.49;30.36
73842;BME280;62184;52.006;5.924;2023-08-08T12:50:34;100491.16;;;29.57;30.45
73842;BME280;62184;52.006;5.924;2023-08-08T12:53:00;100491.69;;;29.61;30.07